Time;durP1;ratioP1;P1;durP2;ratioP2;P2;SDS_P1;SDS_P2;PMS_P1;PMS_P2;Temp;Humidity;BMP_temperature;BMP_pressure;BME280_temperature;BME280_humidity;BME280_pressure;Samples;Min_cycle;Max_cycle;Signal;HPM_P1;HPM_P2
2021/12/03 00:01:19;;;;;;;3.00;2.20;;;2.90;87.70;;;4.44;61.74;98078.53;4949590;28;123569;-90
2021/12/03 05:23:24;;;;;;;5.60;4.13;;;3.50;88.70;;;3.89;61.68;98428.56;5397034;23;97832;-88
2021/12/03 05:59:47;;;;;;;5.83;4.67;;;3.50;87.80;;;3.92;61.27;98466.28;4842207;28;114938;-88
2021/12/03 06:03:41;;;;;;;5.33;4.10;;;3.50;87.70;;;3.93;60.59;98462.44;4758934;29;122672;-88
2021/12/03 06:10:00;;;;;;;5.57;4.57;;;2.40;86.60;;;3.92;60.51;98471.75;4751418;29;114770;-90
2021/12/03 06:16:18;;;;;;;5.43;4.13;;;2.80;86.80;;;3.92;60.52;98479.94;4766131;29;124516;-89
2021/12/03 06:19:31;;;;;;;6.50;4.23;;;4.00;87.80;;;3.93;60.55;98484.31;4736876;29;122691;-90
2021/12/03 06:26:19;;;;;;;6.70;4.60;;;2.00;85.80;;;3.91;60.46;98482.94;4735056;29;115322;-90
2021/12/03 06:29:26;;;;;;;5.23;4.10;;;3.40;87.30;;;3.90;60.45;98486.78;4742553;29;124071;-89
2021/12/03 06:32:13;;;;;;;7.07;5.30;;;3.40;87.00;;;3.87;60.73;98490.88;4725832;29;122709;-89
2021/12/03 06:38:46;;;;;;;10.20;4.40;;;2.40;85.90;;;3.84;60.36;98498.81;4819252;29;114092;-89
2021/12/03 06:44:58;;;;;;;6.97;5.00;;;3.40;86.10;;;3.71;59.43;98503.75;4822857;29;124273;-90
2021/12/03 06:48:41;;;;;;;5.47;4.03;;;3.40;85.90;;;3.72;59.83;98499.91;4820052;29;114554;-89
2021/12/03 06:51:41;;;;;;;7.13;4.60;;;2.10;84.70;;;3.69;60.00;98505.13;4807377;29;113752;-89
2021/12/03 06:55:04;;;;;;;5.67;4.47;;;3.30;85.70;;;3.70;59.57;98507.56;4792542;29;123055;-90
2021/12/03 06:58:48;;;;;;;5.63;4.40;;;2.60;84.90;;;3.71;59.37;98524.78;4821905;29;123675;-89
2021/12/03 07:01:53;;;;;;;4.20;3.60;;;2.00;84.30;;;3.66;59.29;98525.59;4806415;29;113415;-89
2021/12/03 07:04:56;;;;;;;5.50;4.60;;;3.20;85.30;;;3.63;59.18;98525.34;4909154;28;113381;-89
2021/12/03 07:12:02;;;;;;;4.20;3.80;;;3.20;84.80;;;3.52;59.05;98544.47;4908097;28;124862;-89
2021/12/03 07:15:51;;;;;;;5.37;3.53;;;2.80;84.60;;;3.50;59.30;98549.38;4905383;28;113203;-89
2021/12/03 07:18:37;;;;;;;6.73;4.50;;;2.70;84.70;;;3.45;59.41;98554.81;4890791;28;114576;-90
2021/12/03 07:21:29;;;;;;;3.90;3.43;;;3.10;85.20;;;3.47;59.36;98547.19;4894159;28;124294;-88
2021/12/03 07:24:03;;;;;;;4.77;4.00;;;1.80;83.90;;;3.49;59.32;98555.09;4889599;28;121970;-88
2021/12/03 07:26:49;;;;;;;5.30;4.07;;;3.10;85.10;;;3.50;59.40;98546.63;4890491;28;114600;-88
2021/12/03 07:33:07;;;;;;;6.20;3.70;;;3.10;85.00;;;3.45;59.09;98548.56;4909465;28;124133;-88
2021/12/03 07:36:33;;;;;;;4.13;3.73;;;3.10;85.30;;;3.52;59.37;98560.84;4911329;28;123427;-89
2021/12/03 07:39:18;;;;;;;4.33;3.70;;;4.50;86.30;;;3.54;59.09;98576.94;4861766;28;113631;-90
2021/12/03 07:42:01;;;;;;;4.20;3.60;;;3.00;85.00;;;3.58;59.03;98569.88;4864646;28;114386;-90
2021/12/03 07:44:35;;;;;;;4.27;3.87;;;3.50;85.40;;;3.61;59.11;98572.03;4862468;28;122257;-90
2021/12/03 07:51:05;;;;;;;7.07;4.70;;;3.20;84.90;;;3.60;59.05;98564.13;4909050;28;115308;-88
2021/12/03 07:57:33;;;;;;;7.03;4.10;;;3.10;84.80;;;3.66;58.66;98579.44;4885865;28;123571;-88
2021/12/03 08:00:18;;;;;;;6.23;3.77;;;3.10;84.70;;;3.71;58.91;98587.63;4889996;28;122251;-88
2021/12/03 08:02:45;;;;;;;5.30;4.00;;;3.30;85.10;;;3.73;58.51;98588.16;4867083;28;115073;-89
2021/12/03 08:05:37;;;;;;;5.53;4.33;;;4.70;86.20;;;3.79;58.36;98583.50;4867203;28;112471;-89
2021/12/03 08:08:24;;;;;;;10.20;3.17;;;3.20;84.70;;;3.75;58.18;98580.50;4895501;28;123039;-88
2021/12/03 08:11:11;;;;;;;7.00;3.97;;;3.30;84.60;;;3.79;58.30;98584.34;4898608;28;122535;-88
2021/12/03 08:13:39;;;;;;;5.23;3.60;;;3.30;84.50;;;3.75;58.38;98585.97;4869365;28;112710;-88
2021/12/03 08:16:07;;;;;;;6.60;4.10;;;3.30;84.30;;;3.78;58.17;98593.63;4872129;28;113583;-89
2021/12/03 08:18:53;;;;;;;5.30;4.03;;;3.30;84.60;;;3.84;58.21;98589.81;4869836;28;123584;-87
2021/12/03 08:21:58;;;;;;;6.50;3.50;;;3.30;84.20;;;3.90;58.25;98582.44;4849520;29;121736;-89
2021/12/03 08:28:05;;;;;;;6.43;3.87;;;3.30;84.10;;;3.92;57.39;98591.16;4847809;29;114783;-88
2021/12/03 08:31:14;;;;;;;6.63;4.37;;;2.40;83.20;;;3.93;57.46;98582.69;4858144;29;123517;-89
2021/12/03 08:33:42;;;;;;;5.97;3.67;;;3.50;83.70;;;3.91;57.79;98586.81;4834520;29;122435;-88
2021/12/03 08:36:30;;;;;;;4.70;3.27;;;3.50;83.70;;;3.98;57.16;98584.63;4846081;29;114019;-90
2021/12/03 08:39:16;;;;;;;9.03;3.53;;;3.50;83.40;;;4.02;56.68;98584.88;4839104;29;112475;-88
2021/12/03 08:41:45;;;;;;;3.40;3.00;;;3.40;83.00;;;3.99;56.93;98584.31;4847225;29;122455;-89
2021/12/03 08:44:50;;;;;;;4.70;3.20;;;3.60;83.10;;;4.03;56.85;98572.84;4845276;29;123484;-88
2021/12/03 08:48:00;;;;;;;10.73;4.53;;;3.60;83.00;;;4.03;56.52;98575.56;4847729;29;113622;-89
2021/12/03 08:51:20;;;;;;;5.87;3.40;;;3.50;82.80;;;4.03;56.78;98575.56;4839217;29;113326;-90
2021/12/03 08:56:37;;;;;;;5.40;3.47;;;5.30;84.40;;;4.14;56.73;98577.22;4852501;28;123403;-90
2021/12/03 08:59:04;;;;;;;4.40;3.47;;;3.60;82.90;;;4.18;56.52;98573.63;4850303;29;113375;-89
2021/12/03 09:02:29;;;;;;;5.33;3.60;;;3.70;82.90;;;4.31;56.25;98583.19;4848445;28;113173;-87
2021/12/03 09:04:57;;;;;;;5.40;3.30;;;3.80;83.00;;;4.34;56.29;98587.28;4856006;28;122453;-88
2021/12/03 09:07:24;;;;;;;3.30;2.93;;;3.80;83.10;;;4.42;56.13;98595.75;4828234;29;122862;-88
2021/12/03 09:09:51;;;;;;;4.87;3.50;;;5.60;84.30;;;4.48;56.28;98587.53;4837311;28;113982;-87
2021/12/03 09:12:20;;;;;;;4.47;3.10;;;3.90;82.80;;;4.51;56.51;98586.97;4848593;29;113124;-88
2021/12/03 09:15:09;;;;;;;4.53;3.60;;;2.30;81.20;;;4.55;55.81;98582.59;4854608;28;122386;-88
2021/12/03 09:18:07;;;;;;;5.10;2.87;;;4.00;82.60;;;4.58;56.12;98592.97;4861392;28;123327;-88
2021/12/03 09:23:17;;;;;;;4.67;2.43;;;4.00;81.80;;;4.60;55.45;98591.59;4875628;28;114582;-87
2021/12/03 09:26:09;;;;;;;3.67;2.40;;;4.10;81.90;;;4.66;55.36;98600.59;4857975;29;124492;-87
2021/12/03 09:28:41;;;;;;;4.63;2.60;;;4.10;81.30;;;4.60;55.14;98590.78;4844041;28;123462;-88
2021/12/03 09:31:27;;;;;;;2.30;2.10;;;4.10;81.10;;;4.59;54.96;98584.50;4838649;29;113371;-89
2021/12/03 09:33:56;;;;;;;2.30;2.10;;;4.10;80.40;;;4.56;55.07;98586.94;4840301;29;112699;-89
2021/12/03 09:36:23;;;;;;;3.00;2.43;;;4.10;81.20;;;4.56;54.61;98590.50;4832208;28;122119;-89
2021/12/03 09:38:51;;;;;;;2.40;2.20;;;4.10;80.30;;;4.53;54.62;98596.53;4855285;29;123640;-90
2021/12/03 09:41:20;;;;;;;2.43;2.03;;;4.20;80.10;;;4.53;54.50;98602.00;4823607;29;112607;-89
2021/12/03 09:43:52;;;;;;;2.67;1.90;;;4.00;79.80;;;4.56;54.33;98595.16;4855776;28;111249;-88
2021/12/03 09:46:27;;;;;;;6.00;2.53;;;4.10;80.00;;;4.57;54.60;98586.69;4860253;28;123812;-89
2021/12/03 09:51:45;;;;;;;3.20;2.10;;;4.20;80.00;;;4.69;54.17;98580.06;4876033;28;114981;-89
2021/12/03 09:56:49;;;;;;;3.40;2.80;;;4.20;79.90;;;4.72;53.79;98568.56;4861171;28;124053;-89
2021/12/03 10:02:26;;;;;;;4.13;2.40;;;4.90;80.40;;;4.85;53.94;98560.56;4885804;28;114699;-89
2021/12/03 10:17:35;;;;;;;2.60;2.40;;;4.50;78.70;;;5.06;53.00;98571.44;4823987;29;115342;-89
2021/12/03 10:25:58;;;;;;;2.03;1.83;;;4.50;78.10;;;5.15;53.01;98566.16;4805929;29;114241;-89
2021/12/03 10:39:09;;;;;;;5.03;2.07;;;6.60;80.50;;;5.80;51.85;98544.06;4818832;29;114829;-87
2021/12/03 10:42:10;;;;;;;3.97;2.07;;;5.10;78.40;;;5.91;52.51;98546.44;4836260;29;123949;-90
2021/12/03 10:45:32;;;;;;;3.57;2.43;;;5.30;78.50;;;6.06;51.88;98545.50;4836871;29;124175;-91
2021/12/03 10:48:28;;;;;;;2.37;1.90;;;5.40;78.30;;;6.15;51.66;98543.78;4824921;29;113430;-90
2021/12/03 10:51:44;;;;;;;3.10;2.70;;;6.90;79.40;;;6.30;51.60;98544.72;4853339;28;112441;-89
2021/12/03 11:31:13;;;;;;;3.80;3.07;;;8.40;76.30;;;7.42;48.15;98463.56;4843352;28;124945;-87
2021/12/03 12:22:37;;;;;;;6.30;2.67;;;7.30;72.70;;;7.77;48.03;98444.00;4871060;28;114332;-89
2021/12/03 12:27:35;;;;;;;2.60;1.93;;;7.40;71.70;;;7.75;46.79;98431.34;4890861;28;124749;-89
2021/12/03 12:36:25;;;;;;;4.17;2.47;;;7.40;70.70;;;7.97;46.86;98425.16;4875219;28;114496;-89
2021/12/03 12:45:35;;;;;;;2.27;1.80;;;7.70;70.70;;;8.28;46.64;98402.56;4885375;28;114741;-88
2021/12/03 13:34:55;;;;;;;2.60;1.73;;;8.50;69.20;;;9.02;45.20;98363.72;4878993;28;113954;-90
2021/12/03 14:43:22;;;;;;;1.63;1.30;;;7.30;66.90;;;7.53;45.16;98330.31;4874853;28;113221;-87
2021/12/03 14:46:11;;;;;;;2.00;1.67;;;7.30;67.10;;;7.49;45.57;98323.78;4883370;28;124025;-89
2021/12/03 14:54:24;;;;;;;2.20;1.90;;;7.10;67.20;;;7.42;45.42;98317.91;4844384;28;114287;-88
2021/12/03 14:57:33;;;;;;;2.07;1.80;;;7.10;67.30;;;7.39;46.03;98313.00;4857397;28;122655;-88
2021/12/03 15:03:05;;;;;;;3.80;2.23;;;7.10;67.70;;;7.34;46.33;98321.34;4857094;29;115420;-87
2021/12/03 15:08:11;;;;;;;3.73;2.00;;;7.00;68.00;;;7.28;46.32;98323.38;4861476;28;124132;-89
2021/12/03 15:32:36;;;;;;;2.60;1.97;;;6.80;69.10;;;6.96;47.38;98315.97;4863102;28;123525;-88
2021/12/03 15:35:20;;;;;;;2.90;2.10;;;6.60;69.30;;;6.90;47.60;98317.16;4847404;28;112687;-85
2021/12/03 15:38:30;;;;;;;2.00;1.80;;;6.60;69.40;;;6.88;48.01;98315.81;4871904;28;113676;-89
2021/12/03 15:57:55;;;;;;;1.67;1.57;;;6.30;70.30;;;6.62;48.04;98306.06;4870818;28;124212;-87
2021/12/03 16:03:34;;;;;;;3.53;2.07;;;7.10;71.40;;;6.58;48.24;98294.09;4889617;28;114628;-88
2021/12/03 16:06:23;;;;;;;1.87;1.67;;;6.30;70.80;;;6.55;48.36;98289.16;4859114;28;122425;-87
2021/12/03 16:09:16;;;;;;;3.07;2.00;;;6.20;70.80;;;6.52;48.79;98284.28;4886259;28;124493;-89
2021/12/03 16:17:41;;;;;;;3.03;2.10;;;6.10;71.10;;;6.52;48.57;98278.78;4891689;28;124518;-88
2021/12/03 16:23:14;;;;;;;3.00;2.40;;;6.10;71.90;;;6.44;49.07;98282.22;4880057;28;113881;-88
2021/12/03 16:46:18;;;;;;;3.30;2.17;;;5.80;72.10;;;6.12;49.63;98258.28;4879940;28;113843;-89
2021/12/03 16:54:23;;;;;;;4.20;2.63;;;6.90;73.70;;;6.04;50.62;98267.16;4880775;28;124272;-89
2021/12/03 16:56:52;;;;;;;3.80;2.47;;;5.50;72.70;;;5.92;50.39;98270.34;4862229;28;113890;-88
2021/12/03 16:59:20;;;;;;;3.53;3.03;;;5.60;72.80;;;5.89;50.45;98265.44;4864990;28;113445;-88
2021/12/03 17:02:05;;;;;;;2.70;2.30;;;5.50;72.90;;;5.83;50.35;98263.84;4869458;28;123573;-87
2021/12/03 17:05:02;;;;;;;3.47;2.43;;;5.40;73.00;;;5.86;50.98;98249.59;4882494;28;123766;-88
2021/12/03 17:11:39;;;;;;;3.47;2.50;;;5.50;73.40;;;5.84;50.52;98254.53;4907747;28;114083;-88
2021/12/03 17:14:55;;;;;;;3.77;2.40;;;5.30;73.40;;;5.83;50.48;98244.66;4909899;28;122487;-89
2021/12/03 17:57:10;;;;;;;4.00;2.63;;;5.30;73.80;;;5.87;50.17;98191.69;4881781;28;114972;-89
2021/12/03 18:08:40;;;;;;;4.30;2.77;;;3.90;72.50;;;5.91;50.17;98162.59;4868077;28;114102;-89
2021/12/03 18:56:50;;;;;;;2.17;2.03;;;5.30;71.40;;;5.78;49.02;98103.03;4806609;29;116576;-87
2021/12/03 18:59:17;;;;;;;3.13;2.53;;;5.30;71.30;;;5.79;48.75;98096.44;4820127;29;122458;-88
2021/12/03 19:09:16;;;;;;;3.17;2.07;;;5.30;71.10;;;5.80;48.78;98100.78;4858710;28;114249;-88
2021/12/03 19:14:35;;;;;;;4.70;2.90;;;4.40;70.30;;;5.86;49.01;98090.59;4867413;28;124745;-88
2021/12/03 19:17:23;;;;;;;2.10;1.90;;;3.90;70.00;;;5.89;48.45;98079.81;4864948;28;112580;-88
2021/12/03 19:20:02;;;;;;;2.57;2.30;;;5.40;71.00;;;5.87;49.05;98073.00;4861284;28;112083;-90
2021/12/03 19:22:28;;;;;;;4.20;2.37;;;5.20;70.90;;;5.88;48.51;98077.38;4875080;28;123399;-88
2021/12/03 19:24:58;;;;;;;3.70;3.10;;;5.40;71.00;;;5.89;48.12;98059.81;4843442;28;122225;-88
2021/12/03 19:27:44;;;;;;;3.33;2.47;;;5.40;70.90;;;5.95;48.29;98044.94;4859837;28;113590;-88
2021/12/03 19:30:11;;;;;;;4.40;3.03;;;5.40;71.00;;;5.94;48.35;98043.31;4861471;28;112765;-87
2021/12/03 19:32:40;;;;;;;2.40;2.17;;;5.40;71.10;;;5.96;48.25;98038.34;4877560;28;123923;-88
2021/12/03 19:35:09;;;;;;;4.50;2.47;;;5.40;70.90;;;5.97;47.87;98037.25;4849463;28;122879;-89
2021/12/03 19:37:57;;;;;;;3.47;2.60;;;5.50;71.00;;;6.00;48.28;98031.16;4851243;28;112427;-90
2021/12/03 19:44:14;;;;;;;2.60;2.40;;;5.40;70.70;;;5.98;47.76;98028.69;4807957;29;123577;-88
2021/12/03 19:46:46;;;;;;;3.53;2.60;;;4.60;70.10;;;5.98;47.93;98022.41;4804819;29;122398;-88
2021/12/03 19:49:34;;;;;;;5.20;2.50;;;5.50;70.70;;;5.98;48.17;98016.91;4787811;29;113847;-89
2021/12/03 19:52:11;;;;;;;3.57;3.00;;;7.00;71.90;;;5.97;48.20;98009.81;4791573;29;113456;-88
2021/12/03 19:55:01;;;;;;;4.23;2.80;;;4.00;69.30;;;5.94;47.91;97999.47;4807298;29;123574;-87
2021/12/03 19:57:47;;;;;;;3.07;2.40;;;5.40;70.40;;;5.96;48.35;97980.75;4747233;29;122206;-88
2021/12/03 20:00:15;;;;;;;5.87;3.10;;;5.50;70.60;;;5.95;48.55;97973.66;4733906;29;113811;-88
2021/12/03 20:02:41;;;;;;;3.67;2.43;;;4.70;70.00;;;5.97;47.94;97965.94;4746279;29;113236;-88
2021/12/03 20:05:08;;;;;;;6.27;3.13;;;6.60;71.70;;;6.01;48.17;97968.88;4729326;29;123025;-88
2021/12/03 20:07:35;;;;;;;3.43;2.67;;;5.50;70.70;;;6.04;48.20;97969.09;4744840;29;123227;-88
2021/12/03 20:10:09;;;;;;;4.93;2.80;;;6.80;71.90;;;6.08;48.01;97963.84;4742250;29;113988;-88
2021/12/03 20:12:37;;;;;;;4.20;2.97;;;5.50;71.50;;;6.11;48.44;97972.25;4746847;29;112198;-87
2021/12/03 20:15:10;;;;;;;3.67;3.23;;;5.50;70.70;;;6.14;48.08;97981.81;4744887;29;124023;-87
2021/12/03 20:20:07;;;;;;;5.43;2.97;;;5.60;71.10;;;6.10;47.89;97959.66;4740430;29;114190;-86
2021/12/03 20:22:51;;;;;;;3.60;3.00;;;5.60;70.50;;;6.10;47.76;97956.94;4799151;29;113804;-85
2021/12/03 20:28:38;;;;;;;5.07;2.73;;;5.60;70.60;;;6.06;48.33;97947.66;4805788;29;123342;-87
2021/12/03 20:31:08;;;;;;;3.97;2.60;;;6.30;71.20;;;6.06;47.89;97920.25;4823810;29;113164;-87
2021/12/03 20:39:14;;;;;;;5.27;3.20;;;5.60;70.50;;;6.09;48.67;97925.13;4861383;28;123172;-86
2021/12/03 20:47:07;;;;;;;3.10;2.53;;;6.80;71.50;;;6.08;48.09;97922.69;4880483;28;125100;-87
2021/12/03 21:08:59;;;;;;;3.90;2.90;;;5.50;69.90;;;6.00;48.10;97888.56;4827098;29;124452;-88
2021/12/03 21:11:32;;;;;;;4.93;2.70;;;5.50;69.80;;;5.97;47.78;97884.50;4803638;29;122863;-88
2021/12/03 21:14:03;;;;;;;7.70;2.60;;;5.50;69.90;;;5.97;47.57;97878.22;4830615;29;96717;-88
2021/12/03 21:16:57;;;;;;;4.37;3.40;;;7.10;71.50;;;5.97;47.63;97876.28;4823124;29;112496;-88
2021/12/03 21:22:03;;;;;;;3.33;2.57;;;6.20;70.70;;;6.01;47.92;97862.75;4822261;29;124045;-88
2021/12/03 21:24:35;;;;;;;3.10;2.53;;;5.50;70.20;;;6.01;47.50;97873.72;4806884;29;114074;-87
2021/12/03 21:27:08;;;;;;;5.90;2.93;;;5.50;70.20;;;6.01;47.85;97871.00;4806367;29;113487;-87
2021/12/03 21:43:18;;;;;;;3.70;2.70;;;6.70;72.00;;;5.78;49.38;97861.00;4895770;28;125041;-88
2021/12/03 21:45:47;;;;;;;6.07;3.03;;;5.30;71.40;;;5.73;49.63;97851.78;4882369;28;113585;-88
2021/12/03 21:48:16;;;;;;;4.90;3.63;;;4.30;70.70;;;5.73;49.79;97842.75;4871623;28;112247;-88
2021/12/03 21:50:43;;;;;;;2.73;2.30;;;5.30;71.90;;;5.74;49.70;97847.91;4862517;28;122105;-86
2021/12/03 21:53:09;;;;;;;3.63;2.87;;;6.70;73.30;;;5.74;49.79;97841.63;4864320;28;122526;-87
2021/12/03 21:55:39;;;;;;;6.70;2.77;;;5.40;72.40;;;5.75;49.25;97844.06;4854257;28;113293;-86
2021/12/03 21:58:06;;;;;;;2.83;2.53;;;5.30;72.30;;;5.70;49.57;97833.22;4865169;28;112805;-88
2021/12/03 22:00:34;;;;;;;6.50;3.87;;;5.30;72.10;;;5.72;49.54;97821.94;4852140;28;122287;-88
2021/12/03 22:03:01;;;;;;;4.17;2.57;;;6.00;72.70;;;5.72;49.51;97825.50;4869242;28;121848;-86
2021/12/03 22:05:28;;;;;;;3.57;3.00;;;5.30;72.00;;;5.72;49.50;97811.81;4853004;28;112801;-87
2021/12/03 22:07:55;;;;;;;4.40;2.07;;;5.10;72.20;;;5.73;49.08;97799.72;4868002;28;111884;-87
2021/12/03 22:11:02;;;;;;;2.47;2.27;;;3.80;70.70;;;5.80;49.02;97793.00;4866300;28;122282;-87
2021/12/03 22:13:29;;;;;;;3.17;2.70;;;5.20;71.90;;;5.80;49.36;97793.81;4857404;28;124150;-88
2021/12/03 22:16:15;;;;;;;2.43;2.20;;;6.00;72.40;;;5.83;48.94;97790.47;4856710;28;113702;-87
2021/12/03 22:18:43;;;;;;;4.40;2.60;;;5.30;71.80;;;5.82;49.31;97788.03;4882811;28;113660;-87
2021/12/03 22:21:16;;;;;;;3.33;2.40;;;4.80;71.20;;;5.83;49.34;97767.72;4880218;28;122901;-88
2021/12/03 22:23:45;;;;;;;3.17;2.60;;;4.70;70.90;;;5.87;49.48;97772.28;4859915;28;122502;-88
2021/12/03 22:26:15;;;;;;;3.10;2.40;;;6.60;72.80;;;5.91;49.56;97758.75;4853902;28;114361;-86
2021/12/03 22:29:19;;;;;;;4.10;2.80;;;6.00;72.00;;;5.98;48.98;97764.69;4864671;28;114695;-87
2021/12/03 22:32:25;;;;;;;3.60;2.53;;;5.30;71.50;;;6.03;49.00;97756.34;4868025;28;122567;-88
2021/12/03 22:34:51;;;;;;;1.90;1.70;;;5.50;71.60;;;6.01;48.82;97747.59;4856356;28;124006;-86
2021/12/03 22:37:37;;;;;;;2.83;2.53;;;5.50;71.50;;;6.07;48.66;97746.41;4845205;28;112855;-87
2021/12/03 22:40:05;;;;;;;4.67;2.70;;;4.00;69.90;;;6.07;48.63;97754.63;4867337;28;111917;-87
2021/12/03 22:42:32;;;;;;;4.97;2.50;;;5.60;71.10;;;6.07;48.20;97754.63;4865189;28;122757;-87
2021/12/03 22:45:24;;;;;;;2.97;2.20;;;5.40;70.80;;;6.09;47.95;97738.66;4862640;29;122073;-88
2021/12/03 22:47:55;;;;;;;4.70;2.57;;;5.60;70.90;;;6.12;48.19;97743.50;4879139;28;112420;-87
2021/12/03 22:50:45;;;;;;;2.47;2.17;;;6.70;72.10;;;6.12;48.42;97739.97;4864622;28;112714;-89
2021/12/03 22:53:13;;;;;;;2.50;2.17;;;5.60;70.80;;;6.16;48.12;97739.03;4868274;28;123176;-88
2021/12/03 22:55:41;;;;;;;2.37;2.03;;;7.00;72.10;;;6.18;48.35;97739.56;4872584;28;123906;-87
2021/12/03 23:02:46;;;;;;;2.87;2.00;;;6.70;71.80;;;6.26;48.29;97712.47;4893933;28;114429;-87
2021/12/03 23:05:51;;;;;;;2.37;2.17;;;7.10;72.00;;;6.27;47.97;97705.91;4893217;28;122359;-88
2021/12/03 23:08:37;;;;;;;2.73;2.00;;;6.70;71.70;;;6.28;48.27;97680.88;4865799;28;122797;-87
2021/12/03 23:11:05;;;;;;;3.27;2.30;;;4.20;69.50;;;6.26;48.00;97674.09;4862093;28;113157;-87
2021/12/03 23:14:13;;;;;;;4.63;2.20;;;5.70;70.60;;;6.32;48.35;97672.84;4873847;28;113184;-87
2021/12/03 23:16:40;;;;;;;2.10;1.80;;;5.70;70.70;;;6.30;48.04;97664.13;4877408;28;123299;-86
2021/12/03 23:19:44;;;;;;;4.80;2.80;;;5.70;70.80;;;6.37;47.90;97659.81;4862788;28;123871;-88
2021/12/03 23:22:11;;;;;;;2.20;2.00;;;5.70;70.60;;;6.36;48.28;97655.44;4871487;28;113489;-88
2021/12/03 23:24:37;;;;;;;2.07;1.70;;;5.70;70.90;;;6.38;47.72;97655.94;4880592;28;114789;-87
2021/12/03 23:27:04;;;;;;;3.60;2.30;;;5.70;70.70;;;6.41;48.34;97654.50;4887599;28;122301;-87
2021/12/03 23:29:31;;;;;;;3.70;2.07;;;5.80;70.50;;;6.39;47.79;97638.38;4862126;28;122997;-87
2021/12/03 23:32:37;;;;;;;2.00;1.80;;;5.80;70.50;;;6.44;48.33;97633.88;4876251;28;112378;-87
2021/12/03 23:35:24;;;;;;;4.47;2.10;;;5.90;70.80;;;6.45;48.46;97624.50;4878304;28;113787;-88
2021/12/03 23:37:56;;;;;;;2.17;1.90;;;5.80;70.80;;;6.41;48.22;97619.66;4890461;28;122548;-88
2021/12/03 23:40:24;;;;;;;2.33;2.00;;;4.30;69.30;;;6.43;48.35;97619.34;4879721;28;122867;-87
2021/12/03 23:42:52;;;;;;;2.63;1.87;;;6.60;71.30;;;6.44;48.64;97612.72;4880706;28;114328;-88
2021/12/03 23:45:24;;;;;;;4.07;2.00;;;7.00;71.80;;;6.45;47.94;97603.38;4861371;28;112962;-87
2021/12/03 23:47:50;;;;;;;3.13;2.10;;;5.80;70.90;;;6.46;47.85;97599.50;4877206;28;123757;-89
2021/12/03 23:50:18;;;;;;;2.03;1.83;;;7.20;72.00;;;6.49;47.88;97601.63;4861102;28;124902;-88
2021/12/03 23:52:45;;;;;;;2.20;1.97;;;6.70;71.80;;;6.50;47.98;97596.94;4879493;28;113272;-87
2021/12/03 23:55:12;;;;;;;2.50;1.97;;;6.10;70.80;;;6.48;48.00;97589.03;4874662;28;112525;-87
2021/12/03 23:57:41;;;;;;;2.17;1.90;;;7.00;71.60;;;6.50;48.10;97586.78;4843222;28;123439;-87
